sensor_id;sensor_type;location;lat;lon;timestamp;P1;durP1;ratioP1;P2;durP2;ratioP2
23388;SDS011;11867;51.198;11.966;2024-02-04T00:05:10;1.77;;;1.58;;
23388;SDS011;11867;51.198;11.966;2024-02-04T00:10:33;2.08;;;1.52;;
23388;SDS011;11867;51.198;11.966;2024-02-04T00:15:57;1.60;;;1.40;;
23388;SDS011;11867;51.198;11.966;2024-02-04T00:21:20;2.03;;;0.98;;
23388;SDS011;11867;51.198;11.966;2024-02-04T00:26:43;2.35;;;1.13;;
23388;SDS011;11867;51.198;11.966;2024-02-04T00:32:08;1.55;;;1.42;;
23388;SDS011;11867;51.198;11.966;2024-02-04T00:37:30;1.42;;;1.33;;
23388;SDS011;11867;51.198;11.966;2024-02-04T00:42:53;1.90;;;1.80;;
23388;SDS011;11867;51.198;11.966;2024-02-04T00:48:19;2.90;;;2.60;;
23388;SDS011;11867;51.198;11.966;2024-02-04T00:53:42;2.08;;;1.88;;
23388;SDS011;11867;51.198;11.966;2024-02-04T00:59:05;3.35;;;2.75;;
23388;SDS011;11867;51.198;11.966;2024-02-04T01:04:29;4.60;;;2.60;;
23388;SDS011;11867;51.198;11.966;2024-02-04T01:09:52;3.03;;;1.88;;
23388;SDS011;11867;51.198;11.966;2024-02-04T01:15:15;2.75;;;2.50;;
23388;SDS011;11867;51.198;11.966;2024-02-04T01:20:39;3.50;;;2.47;;
23388;SDS011;11867;51.198;11.966;2024-02-04T01:26:02;2.78;;;2.30;;
23388;SDS011;11867;51.198;11.966;2024-02-04T01:31:26;2.58;;;2.38;;
23388;SDS011;11867;51.198;11.966;2024-02-04T01:36:50;2.60;;;2.30;;
23388;SDS011;11867;51.198;11.966;2024-02-04T01:42:13;4.03;;;2.85;;
23388;SDS011;11867;51.198;11.966;2024-02-04T01:47:36;3.05;;;2.58;;
23388;SDS011;11867;51.198;11.966;2024-02-04T01:53:01;3.33;;;2.90;;
23388;SDS011;11867;51.198;11.966;2024-02-04T01:58:24;4.18;;;3.70;;
23388;SDS011;11867;51.198;11.966;2024-02-04T02:03:47;4.70;;;3.53;;
23388;SDS011;11867;51.198;11.966;2024-02-04T02:14:37;4.88;;;4.00;;
23388;SDS011;11867;51.198;11.966;2024-02-04T02:20:17;5.50;;;4.07;;
23388;SDS011;11867;51.198;11.966;2024-02-04T02:25:45;6.22;;;3.60;;
23388;SDS011;11867;51.198;11.966;2024-02-04T02:31:08;4.25;;;3.20;;
23388;SDS011;11867;51.198;11.966;2024-02-04T02:36:35;5.38;;;3.55;;
23388;SDS011;11867;51.198;11.966;2024-02-04T02:42:05;4.25;;;3.15;;
23388;SDS011;11867;51.198;11.966;2024-02-04T02:47:28;4.25;;;3.00;;
23388;SDS011;11867;51.198;11.966;2024-02-04T02:52:52;2.88;;;2.67;;
23388;SDS011;11867;51.198;11.966;2024-02-04T02:58:16;3.78;;;2.72;;
23388;SDS011;11867;51.198;11.966;2024-02-04T03:03:39;5.25;;;2.80;;
23388;SDS011;11867;51.198;11.966;2024-02-04T03:09:02;3.45;;;2.47;;
23388;SDS011;11867;51.198;11.966;2024-02-04T03:14:27;3.95;;;2.50;;
23388;SDS011;11867;51.198;11.966;2024-02-04T03:19:49;2.50;;;2.30;;
23388;SDS011;11867;51.198;11.966;2024-02-04T03:25:13;3.63;;;2.97;;
23388;SDS011;11867;51.198;11.966;2024-02-04T03:30:38;3.47;;;2.97;;
23388;SDS011;11867;51.198;11.966;2024-02-04T03:36:01;3.97;;;2.40;;
23388;SDS011;11867;51.198;11.966;2024-02-04T03:41:24;4.22;;;2.97;;
23388;SDS011;11867;51.198;11.966;2024-02-04T03:46:49;5.00;;;3.28;;
23388;SDS011;11867;51.198;11.966;2024-02-04T03:52:12;4.75;;;3.25;;
23388;SDS011;11867;51.198;11.966;2024-02-04T03:57:35;3.88;;;3.28;;
23388;SDS011;11867;51.198;11.966;2024-02-04T04:02:59;4.40;;;3.72;;
23388;SDS011;11867;51.198;11.966;2024-02-04T04:08:22;3.58;;;2.80;;
23388;SDS011;11867;51.198;11.966;2024-02-04T04:13:48;4.82;;;4.20;;
23388;SDS011;11867;51.198;11.966;2024-02-04T04:19:12;5.32;;;4.28;;
23388;SDS011;11867;51.198;11.966;2024-02-04T04:24:35;4.13;;;3.45;;
23388;SDS011;11867;51.198;11.966;2024-02-04T04:30:00;6.55;;;5.05;;
23388;SDS011;11867;51.198;11.966;2024-02-04T04:35:24;4.90;;;4.15;;
23388;SDS011;11867;51.198;11.966;2024-02-04T04:40:47;4.10;;;3.55;;
23388;SDS011;11867;51.198;11.966;2024-02-04T04:46:10;7.80;;;4.80;;
23388;SDS011;11867;51.198;11.966;2024-02-04T04:51:35;6.28;;;5.13;;
23388;SDS011;11867;51.198;11.966;2024-02-04T04:56:58;6.57;;;4.03;;
23388;SDS011;11867;51.198;11.966;2024-02-04T05:02:20;6.18;;;4.63;;
23388;SDS011;11867;51.198;11.966;2024-02-04T05:07:45;6.90;;;4.75;;
23388;SDS011;11867;51.198;11.966;2024-02-04T05:18:31;5.68;;;3.92;;
23388;SDS011;11867;51.198;11.966;2024-02-04T05:23:56;5.20;;;4.22;;
23388;SDS011;11867;51.198;11.966;2024-02-04T05:29:19;4.70;;;3.10;;
23388;SDS011;11867;51.198;11.966;2024-02-04T05:34:42;3.38;;;3.08;;
23388;SDS011;11867;51.198;11.966;2024-02-04T05:40:07;3.08;;;2.83;;
23388;SDS011;11867;51.198;11.966;2024-02-04T05:45:30;1.90;;;1.80;;
23388;SDS011;11867;51.198;11.966;2024-02-04T05:50:53;1.20;;;1.10;;
23388;SDS011;11867;51.198;11.966;2024-02-04T05:56:17;1.00;;;1.00;;
23388;SDS011;11867;51.198;11.966;2024-02-04T06:01:41;0.80;;;0.60;;
23388;SDS011;11867;51.198;11.966;2024-02-04T06:07:05;0.77;;;0.70;;
23388;SDS011;11867;51.198;11.966;2024-02-04T06:12:29;0.80;;;0.50;;
23388;SDS011;11867;51.198;11.966;2024-02-04T06:17:52;0.45;;;0.30;;
23388;SDS011;11867;51.198;11.966;2024-02-04T06:23:15;0.40;;;0.40;;
23388;SDS011;11867;51.198;11.966;2024-02-04T06:28:41;0.40;;;0.40;;
23388;SDS011;11867;51.198;11.966;2024-02-04T06:34:06;0.50;;;0.32;;
23388;SDS011;11867;51.198;11.966;2024-02-04T06:39:29;0.55;;;0.30;;
23388;SDS011;11867;51.198;11.966;2024-02-04T06:44:54;0.30;;;0.30;;
23388;SDS011;11867;51.198;11.966;2024-02-04T06:50:16;0.25;;;0.25;;
23388;SDS011;11867;51.198;11.966;2024-02-04T06:55:40;0.20;;;0.20;;
23388;SDS011;11867;51.198;11.966;2024-02-04T07:01:04;0.43;;;0.22;;
23388;SDS011;11867;51.198;11.966;2024-02-04T07:06:27;0.13;;;0.13;;
23388;SDS011;11867;51.198;11.966;2024-02-04T07:11:50;0.25;;;0.20;;
23388;SDS011;11867;51.198;11.966;2024-02-04T07:17:15;0.22;;;0.17;;
23388;SDS011;11867;51.198;11.966;2024-02-04T07:22:38;0.10;;;0.10;;
23388;SDS011;11867;51.198;11.966;2024-02-04T07:28:02;0.10;;;0.10;;
23388;SDS011;11867;51.198;11.966;2024-02-04T07:33:27;0.63;;;0.32;;
23388;SDS011;11867;51.198;11.966;2024-02-04T07:38:53;0.10;;;0.10;;
23388;SDS011;11867;51.198;11.966;2024-02-04T07:44:17;1.00;;;0.10;;
23388;SDS011;11867;51.198;11.966;2024-02-04T07:49:41;0.43;;;0.25;;
23388;SDS011;11867;51.198;11.966;2024-02-04T07:55:04;0.88;;;0.30;;
23388;SDS011;11867;51.198;11.966;2024-02-04T08:00:27;0.50;;;0.50;;
23388;SDS011;11867;51.198;11.966;2024-02-04T08:05:52;1.30;;;0.70;;
23388;SDS011;11867;51.198;11.966;2024-02-04T08:11:15;0.77;;;0.60;;
23388;SDS011;11867;51.198;11.966;2024-02-04T08:16:39;2.15;;;2.05;;
23388;SDS011;11867;51.198;11.966;2024-02-04T08:27:28;0.40;;;0.40;;
23388;SDS011;11867;51.198;11.966;2024-02-04T08:32:51;1.08;;;0.70;;
23388;SDS011;11867;51.198;11.966;2024-02-04T08:38:16;1.13;;;1.02;;
23388;SDS011;11867;51.198;11.966;2024-02-04T08:43:38;0.65;;;0.65;;
23388;SDS011;11867;51.198;11.966;2024-02-04T08:49:01;1.85;;;1.30;;
23388;SDS011;11867;51.198;11.966;2024-02-04T08:54:26;1.30;;;1.20;;
23388;SDS011;11867;51.198;11.966;2024-02-04T08:59:49;1.48;;;1.10;;
23388;SDS011;11867;51.198;11.966;2024-02-04T09:05:12;1.85;;;1.73;;
23388;SDS011;11867;51.198;11.966;2024-02-04T09:10:56;1.67;;;1.58;;
23388;SDS011;11867;51.198;11.966;2024-02-04T09:16:19;1.55;;;1.25;;
23388;SDS011;11867;51.198;11.966;2024-02-04T09:21:42;1.33;;;1.23;;
23388;SDS011;11867;51.198;11.966;2024-02-04T09:27:06;1.00;;;0.80;;
23388;SDS011;11867;51.198;11.966;2024-02-04T09:32:29;0.32;;;0.32;;
23388;SDS011;11867;51.198;11.966;2024-02-04T09:37:53;0.45;;;0.45;;
23388;SDS011;11867;51.198;11.966;2024-02-04T09:43:17;0.40;;;0.40;;
23388;SDS011;11867;51.198;11.966;2024-02-04T09:48:42;1.10;;;0.60;;
23388;SDS011;11867;51.198;11.966;2024-02-04T09:54:09;0.73;;;0.73;;
23388;SDS011;11867;51.198;11.966;2024-02-04T09:59:35;0.80;;;0.75;;
23388;SDS011;11867;51.198;11.966;2024-02-04T10:04:58;1.08;;;0.98;;
23388;SDS011;11867;51.198;11.966;2024-02-04T10:10:21;1.85;;;1.40;;
23388;SDS011;11867;51.198;11.966;2024-02-04T10:15:46;1.75;;;1.63;;
23388;SDS011;11867;51.198;11.966;2024-02-04T10:21:16;2.83;;;1.23;;
23388;SDS011;11867;51.198;11.966;2024-02-04T10:26:40;2.40;;;1.65;;
23388;SDS011;11867;51.198;11.966;2024-02-04T10:32:06;3.33;;;2.25;;
23388;SDS011;11867;51.198;11.966;2024-02-04T10:37:30;3.05;;;2.03;;
23388;SDS011;11867;51.198;11.966;2024-02-04T10:42:53;2.60;;;2.17;;
23388;SDS011;11867;51.198;11.966;2024-02-04T10:48:24;2.80;;;2.20;;
23388;SDS011;11867;51.198;11.966;2024-02-04T10:53:50;1.90;;;1.52;;
23388;SDS011;11867;51.198;11.966;2024-02-04T10:59:16;2.22;;;1.85;;
23388;SDS011;11867;51.198;11.966;2024-02-04T11:04:43;5.28;;;2.90;;
23388;SDS011;11867;51.198;11.966;2024-02-04T11:10:11;1.75;;;1.65;;
23388;SDS011;11867;51.198;11.966;2024-02-04T11:15:35;1.48;;;1.38;;
23388;SDS011;11867;51.198;11.966;2024-02-04T11:21:07;1.67;;;1.52;;
23388;SDS011;11867;51.198;11.966;2024-02-04T11:26:45;4.65;;;2.30;;
23388;SDS011;11867;51.198;11.966;2024-02-04T11:32:09;1.60;;;1.50;;
23388;SDS011;11867;51.198;11.966;2024-02-04T11:37:34;1.77;;;1.40;;
23388;SDS011;11867;51.198;11.966;2024-02-04T11:43:03;0.88;;;0.88;;
23388;SDS011;11867;51.198;11.966;2024-02-04T11:48:30;1.80;;;1.10;;
23388;SDS011;11867;51.198;11.966;2024-02-04T11:53:56;0.90;;;0.90;;
23388;SDS011;11867;51.198;11.966;2024-02-04T12:04:44;0.90;;;0.88;;
23388;SDS011;11867;51.198;11.966;2024-02-04T12:10:09;1.17;;;0.80;;
23388;SDS011;11867;51.198;11.966;2024-02-04T12:20:56;1.00;;;0.88;;
23388;SDS011;11867;51.198;11.966;2024-02-04T12:26:21;0.90;;;0.90;;
23388;SDS011;11867;51.198;11.966;2024-02-04T12:31:44;1.88;;;0.93;;
23388;SDS011;11867;51.198;11.966;2024-02-04T12:37:07;2.95;;;1.25;;
23388;SDS011;11867;51.198;11.966;2024-02-04T12:42:33;1.83;;;1.40;;
23388;SDS011;11867;51.198;11.966;2024-02-04T12:53:20;2.25;;;2.05;;
23388;SDS011;11867;51.198;11.966;2024-02-04T12:58:44;2.38;;;1.98;;
23388;SDS011;11867;51.198;11.966;2024-02-04T13:04:07;2.55;;;2.35;;
23388;SDS011;11867;51.198;11.966;2024-02-04T13:09:30;3.60;;;2.30;;
23388;SDS011;11867;51.198;11.966;2024-02-04T13:14:55;3.08;;;2.78;;
23388;SDS011;11867;51.198;11.966;2024-02-04T13:20:19;3.95;;;2.85;;
23388;SDS011;11867;51.198;11.966;2024-02-04T13:25:41;3.25;;;2.58;;
23388;SDS011;11867;51.198;11.966;2024-02-04T13:31:07;2.25;;;2.05;;
23388;SDS011;11867;51.198;11.966;2024-02-04T13:41:54;3.80;;;2.53;;
23388;SDS011;11867;51.198;11.966;2024-02-04T13:47:18;3.42;;;2.92;;
23388;SDS011;11867;51.198;11.966;2024-02-04T13:52:41;2.92;;;2.20;;
23388;SDS011;11867;51.198;11.966;2024-02-04T13:58:04;2.40;;;2.20;;
23388;SDS011;11867;51.198;11.966;2024-02-04T14:03:28;5.30;;;4.20;;
23388;SDS011;11867;51.198;11.966;2024-02-04T14:08:52;10.02;;;5.57;;
23388;SDS011;11867;51.198;11.966;2024-02-04T14:14:14;5.82;;;5.10;;
23388;SDS011;11867;51.198;11.966;2024-02-04T14:19:39;7.50;;;5.35;;
23388;SDS011;11867;51.198;11.966;2024-02-04T14:25:02;2.40;;;2.08;;
23388;SDS011;11867;51.198;11.966;2024-02-04T14:30:27;3.10;;;2.75;;
23388;SDS011;11867;51.198;11.966;2024-02-04T14:35:52;2.72;;;1.95;;
23388;SDS011;11867;51.198;11.966;2024-02-04T14:41:15;2.08;;;1.73;;
23388;SDS011;11867;51.198;11.966;2024-02-04T14:46:38;3.47;;;2.95;;
23388;SDS011;11867;51.198;11.966;2024-02-04T14:52:05;2.15;;;1.85;;
23388;SDS011;11867;51.198;11.966;2024-02-04T15:02:51;5.40;;;4.57;;
23388;SDS011;11867;51.198;11.966;2024-02-04T15:08:15;2.40;;;1.33;;
23388;SDS011;11867;51.198;11.966;2024-02-04T15:13:38;2.33;;;1.80;;
23388;SDS011;11867;51.198;11.966;2024-02-04T15:19:02;1.83;;;1.50;;
23388;SDS011;11867;51.198;11.966;2024-02-04T15:24:27;1.30;;;1.20;;
23388;SDS011;11867;51.198;11.966;2024-02-04T15:29:51;1.92;;;1.52;;
23388;SDS011;11867;51.198;11.966;2024-02-04T15:35:16;1.38;;;1.27;;
23388;SDS011;11867;51.198;11.966;2024-02-04T15:40:41;3.77;;;2.77;;
23388;SDS011;11867;51.198;11.966;2024-02-04T15:46:06;2.30;;;1.30;;
23388;SDS011;11867;51.198;11.966;2024-02-04T15:51:32;2.50;;;1.98;;
23388;SDS011;11867;51.198;11.966;2024-02-04T15:56:58;1.65;;;1.40;;
23388;SDS011;11867;51.198;11.966;2024-02-04T16:02:26;3.33;;;1.80;;
23388;SDS011;11867;51.198;11.966;2024-02-04T16:07:50;2.38;;;2.17;;
23388;SDS011;11867;51.198;11.966;2024-02-04T16:13:15;1.33;;;1.23;;
23388;SDS011;11867;51.198;11.966;2024-02-04T16:18:39;2.08;;;1.40;;
23388;SDS011;11867;51.198;11.966;2024-02-04T16:24:03;3.27;;;1.87;;
23388;SDS011;11867;51.198;11.966;2024-02-04T16:29:27;2.35;;;2.00;;
23388;SDS011;11867;51.198;11.966;2024-02-04T16:34:50;2.80;;;1.38;;
23388;SDS011;11867;51.198;11.966;2024-02-04T16:40:14;2.20;;;1.50;;
23388;SDS011;11867;51.198;11.966;2024-02-04T16:45:38;7.57;;;3.40;;
23388;SDS011;11867;51.198;11.966;2024-02-04T16:51:01;2.45;;;1.70;;
23388;SDS011;11867;51.198;11.966;2024-02-04T16:56:24;3.20;;;1.58;;
23388;SDS011;11867;51.198;11.966;2024-02-04T17:01:49;1.80;;;1.55;;
23388;SDS011;11867;51.198;11.966;2024-02-04T17:07:13;1.95;;;1.80;;
23388;SDS011;11867;51.198;11.966;2024-02-04T17:12:36;1.40;;;1.30;;
23388;SDS011;11867;51.198;11.966;2024-02-04T17:23:27;1.60;;;1.50;;
23388;SDS011;11867;51.198;11.966;2024-02-04T17:28:54;2.90;;;2.05;;
23388;SDS011;11867;51.198;11.966;2024-02-04T17:34:19;3.67;;;3.00;;
23388;SDS011;11867;51.198;11.966;2024-02-04T17:39:43;8.48;;;5.60;;
23388;SDS011;11867;51.198;11.966;2024-02-04T17:45:06;3.15;;;2.55;;
23388;SDS011;11867;51.198;11.966;2024-02-04T17:50:31;1.70;;;1.60;;
23388;SDS011;11867;51.198;11.966;2024-02-04T17:55:54;1.02;;;1.02;;
23388;SDS011;11867;51.198;11.966;2024-02-04T18:01:18;1.88;;;1.70;;
23388;SDS011;11867;51.198;11.966;2024-02-04T18:06:43;1.83;;;1.23;;
23388;SDS011;11867;51.198;11.966;2024-02-04T18:12:06;1.70;;;1.60;;
23388;SDS011;11867;51.198;11.966;2024-02-04T18:17:30;31.77;;;17.77;;
23388;SDS011;11867;51.198;11.966;2024-02-04T18:22:55;6.00;;;4.20;;
23388;SDS011;11867;51.198;11.966;2024-02-04T18:28:18;5.03;;;2.50;;
23388;SDS011;11867;51.198;11.966;2024-02-04T18:33:41;7.53;;;5.03;;
23388;SDS011;11867;51.198;11.966;2024-02-04T18:39:05;6.40;;;4.88;;
23388;SDS011;11867;51.198;11.966;2024-02-04T18:44:29;4.40;;;3.88;;
23388;SDS011;11867;51.198;11.966;2024-02-04T18:49:52;6.60;;;3.75;;
23388;SDS011;11867;51.198;11.966;2024-02-04T18:55:17;5.13;;;4.32;;
23388;SDS011;11867;51.198;11.966;2024-02-04T19:00:41;7.25;;;4.30;;
23388;SDS011;11867;51.198;11.966;2024-02-04T19:06:06;5.30;;;4.22;;
23388;SDS011;11867;51.198;11.966;2024-02-04T19:11:31;4.63;;;4.00;;
23388;SDS011;11867;51.198;11.966;2024-02-04T19:16:57;4.35;;;3.67;;
23388;SDS011;11867;51.198;11.966;2024-02-04T19:22:20;0.80;;;0.80;;
23388;SDS011;11867;51.198;11.966;2024-02-04T19:27:49;0.57;;;0.30;;
23388;SDS011;11867;51.198;11.966;2024-02-04T19:33:12;0.20;;;0.20;;
23388;SDS011;11867;51.198;11.966;2024-02-04T19:38:37;0.20;;;0.20;;
23388;SDS011;11867;51.198;11.966;2024-02-04T19:44:02;0.30;;;0.30;;
23388;SDS011;11867;51.198;11.966;2024-02-04T19:49:25;0.32;;;0.32;;
23388;SDS011;11867;51.198;11.966;2024-02-04T19:54:51;0.40;;;0.40;;
23388;SDS011;11867;51.198;11.966;2024-02-04T20:00:16;0.50;;;0.50;;
23388;SDS011;11867;51.198;11.966;2024-02-04T20:05:40;0.73;;;0.63;;
23388;SDS011;11867;51.198;11.966;2024-02-04T20:11:03;0.88;;;0.85;;
23388;SDS011;11867;51.198;11.966;2024-02-04T20:16:28;2.58;;;0.80;;
23388;SDS011;11867;51.198;11.966;2024-02-04T20:21:51;0.90;;;0.90;;
23388;SDS011;11867;51.198;11.966;2024-02-04T20:27:14;1.60;;;1.30;;
23388;SDS011;11867;51.198;11.966;2024-02-04T20:32:38;1.90;;;1.30;;
23388;SDS011;11867;51.198;11.966;2024-02-04T20:38:01;2.55;;;1.30;;
23388;SDS011;11867;51.198;11.966;2024-02-04T20:43:24;1.70;;;1.60;;
23388;SDS011;11867;51.198;11.966;2024-02-04T20:48:48;2.72;;;2.03;;
23388;SDS011;11867;51.198;11.966;2024-02-04T20:54:11;1.80;;;1.70;;
23388;SDS011;11867;51.198;11.966;2024-02-04T20:59:34;2.47;;;2.28;;
23388;SDS011;11867;51.198;11.966;2024-02-04T21:10:24;2.63;;;1.90;;
23388;SDS011;11867;51.198;11.966;2024-02-04T21:15:47;1.60;;;1.50;;
23388;SDS011;11867;51.198;11.966;2024-02-04T21:21:11;1.20;;;1.10;;
23388;SDS011;11867;51.198;11.966;2024-02-04T21:26:34;0.90;;;0.90;;
23388;SDS011;11867;51.198;11.966;2024-02-04T21:31:57;1.45;;;0.90;;
23388;SDS011;11867;51.198;11.966;2024-02-04T21:37:21;1.08;;;0.65;;
23388;SDS011;11867;51.198;11.966;2024-02-04T21:42:44;1.00;;;0.35;;
23388;SDS011;11867;51.198;11.966;2024-02-04T21:48:08;0.30;;;0.30;;
23388;SDS011;11867;51.198;11.966;2024-02-04T21:53:33;0.90;;;0.50;;
23388;SDS011;11867;51.198;11.966;2024-02-04T21:58:56;1.20;;;0.50;;
23388;SDS011;11867;51.198;11.966;2024-02-04T22:04:19;0.55;;;0.55;;
23388;SDS011;11867;51.198;11.966;2024-02-04T22:09:43;0.65;;;0.20;;
23388;SDS011;11867;51.198;11.966;2024-02-04T22:15:07;1.10;;;0.20;;
23388;SDS011;11867;51.198;11.966;2024-02-04T22:20:30;0.10;;;0.10;;
23388;SDS011;11867;51.198;11.966;2024-02-04T22:25:54;0.50;;;0.28;;
23388;SDS011;11867;51.198;11.966;2024-02-04T22:31:17;0.30;;;0.20;;
23388;SDS011;11867;51.198;11.966;2024-02-04T22:36:40;0.20;;;0.20;;
23388;SDS011;11867;51.198;11.966;2024-02-04T22:42:05;1.48;;;0.22;;
23388;SDS011;11867;51.198;11.966;2024-02-04T22:47:28;0.15;;;0.15;;
23388;SDS011;11867;51.198;11.966;2024-02-04T22:52:51;0.20;;;0.20;;
23388;SDS011;11867;51.198;11.966;2024-02-04T22:58:16;0.10;;;0.10;;
23388;SDS011;11867;51.198;11.966;2024-02-04T23:03:39;0.98;;;0.10;;
23388;SDS011;11867;51.198;11.966;2024-02-04T23:09:02;0.10;;;0.10;;
23388;SDS011;11867;51.198;11.966;2024-02-04T23:14:27;0.10;;;0.10;;
23388;SDS011;11867;51.198;11.966;2024-02-04T23:19:50;0.15;;;0.08;;
23388;SDS011;11867;51.198;11.966;2024-02-04T23:25:13;0.20;;;0.10;;
23388;SDS011;11867;51.198;11.966;2024-02-04T23:30:38;1.55;;;0.10;;
23388;SDS011;11867;51.198;11.966;2024-02-04T23:36:01;2.10;;;0.10;;
23388;SDS011;11867;51.198;11.966;2024-02-04T23:41:25;0.10;;;0.10;;
23388;SDS011;11867;51.198;11.966;2024-02-04T23:46:49;0.57;;;0.20;;
23388;SDS011;11867;51.198;11.966;2024-02-04T23:52:12;0.00;;;0.00;;
23388;SDS011;11867;51.198;11.966;2024-02-04T23:57:36;0.10;;;0.10;;
